Fort Wingate, New Mexico
Current Conditions -  °F | °C
As of 12:53 AM on Sunday 26 Oct 2014 (Local Time) from KGUP Reporting Station
Clear Clear  
Wind Chill:   Ceiling: Unl
Heat Index:   Visibility: 10mi
Dew Point:   Wind: 3mph
Humidity: 64%   Direction: 120°ESE
Pressure: 30.24"   Gusts: NA
Location:  35.47°N, 108.55°W
Report Text: KGUP 260653Z AUTO 12003KT 10SM CLR 09/03 A3024 RMK AO2 SLP118 T00940028 402390006
Loading
Personal Weather Stations






























Interactive Weather Map
Tropical Storm Tracking
New forecast layout! Learn more

10-Day Weather Forecast

Advertisements
Track Severe Weather on mobile